createdAt,value
2018-01-14T05:00:47.608Z,0
2018-01-14T05:02:16.682Z,0
2018-01-14T05:02:42.186Z,0
2018-01-14T05:03:07.670Z,0
2018-01-14T05:03:33.118Z,0
2018-01-14T05:03:58.583Z,0
2018-01-14T05:04:24.061Z,0
2018-01-14T05:04:49.603Z,0
2018-01-14T05:06:08.530Z,0
2018-01-14T05:06:34.043Z,0
2018-01-14T05:06:59.513Z,0
2018-01-14T05:07:25.002Z,0
2018-01-14T05:07:50.465Z,0
2018-01-14T05:08:15.986Z,0
2018-01-14T05:08:41.453Z,0
2018-01-14T05:09:06.931Z,0
2018-01-14T05:09:32.409Z,0
2018-01-14T05:10:56.404Z,0
2018-01-14T05:11:21.912Z,0
2018-01-14T05:11:47.437Z,0
2018-01-14T05:12:12.934Z,0
2018-01-14T05:12:38.455Z,0
2018-01-14T05:13:03.948Z,0
2018-01-14T05:13:29.487Z,0
2018-01-14T05:13:54.995Z,0
2018-01-14T05:14:20.481Z,0
2018-01-14T05:14:46.028Z,0
2018-01-14T05:15:11.522Z,0
2018-01-14T05:15:37.028Z,0
2018-01-14T05:16:02.567Z,0
2018-01-14T05:16:28.064Z,0
2018-01-14T05:16:53.572Z,0
2018-01-14T05:17:19.068Z,0
2018-01-14T05:17:44.539Z,0
2018-01-14T05:18:10.025Z,0
2018-01-14T05:18:35.535Z,0
2018-01-14T05:19:01.024Z,0
2018-01-14T05:19:26.552Z,0
2018-01-14T05:19:52.051Z,0
2018-01-14T05:20:17.547Z,0
2018-01-14T05:20:43.052Z,0
2018-01-14T05:21:08.527Z,0
2018-01-14T05:21:34.099Z,0
2018-01-14T05:21:59.579Z,0
2018-01-14T05:22:25.090Z,0
2018-01-14T05:22:50.590Z,0
2018-01-14T05:23:16.056Z,0
2018-01-14T05:23:41.505Z,0
2018-01-14T05:24:07.015Z,0
2018-01-14T05:24:32.515Z,0
2018-01-14T05:24:58.027Z,0
2018-01-14T05:25:23.503Z,0
2018-01-14T05:25:49.002Z,0
2018-01-14T05:26:14.464Z,0
2018-01-14T05:26:39.954Z,0
2018-01-14T05:28:04.031Z,0
2018-01-14T05:28:29.510Z,0
2018-01-14T05:28:55.001Z,0
2018-01-14T05:29:20.475Z,0
2018-01-14T05:29:45.991Z,0
2018-01-14T05:30:11.511Z,0
2018-01-14T05:30:37.026Z,0
2018-01-14T05:31:02.501Z,0
2018-01-14T05:31:28.005Z,0
2018-01-14T05:31:53.481Z,0
2018-01-14T05:32:18.964Z,0
2018-01-14T05:32:44.447Z,0
2018-01-14T05:33:09.957Z,0
2018-01-14T05:33:35.460Z,0
2018-01-14T05:34:00.928Z,0
2018-01-14T05:34:26.386Z,0
2018-01-14T05:34:51.894Z,0
2018-01-14T05:35:17.385Z,0
2018-01-14T05:35:42.840Z,0
2018-01-14T05:36:08.319Z,0
2018-01-14T05:36:33.841Z,0
2018-01-14T05:38:02.934Z,0
2018-01-14T05:38:28.423Z,0
2018-01-14T05:38:53.916Z,0
2018-01-14T05:39:19.385Z,0
2018-01-14T05:39:44.890Z,0
2018-01-14T05:40:10.411Z,0
2018-01-14T05:40:35.905Z,0
2018-01-14T05:41:01.447Z,0
2018-01-14T05:41:26.877Z,0
2018-01-14T05:41:52.387Z,0
2018-01-14T05:42:17.873Z,0
2018-01-14T05:42:43.375Z,0
2018-01-14T05:43:08.877Z,0
2018-01-14T05:43:34.356Z,0
2018-01-14T05:43:59.860Z,0
2018-01-14T05:44:25.358Z,0
2018-01-14T05:44:50.822Z,0
2018-01-14T05:45:16.297Z,0
2018-01-14T05:45:41.794Z,0
2018-01-14T05:46:07.291Z,0
2018-01-14T05:46:32.799Z,0
2018-01-14T05:46:58.312Z,0
2018-01-14T05:47:23.797Z,0
2018-01-14T05:47:49.273Z,0
2018-01-14T05:48:14.768Z,0
2018-01-14T05:48:40.246Z,0
2018-01-14T05:49:05.745Z,0
2018-01-14T05:49:31.232Z,0
2018-01-14T05:49:56.692Z,0
2018-01-14T05:50:22.185Z,0
2018-01-14T05:50:47.668Z,0
2018-01-14T05:51:13.145Z,0
2018-01-14T05:51:38.631Z,0
2018-01-14T05:52:04.099Z,0
2018-01-14T05:52:29.604Z,0
2018-01-14T05:52:55.101Z,0
2018-01-14T05:53:20.559Z,0
2018-01-14T05:53:46.057Z,0
2018-01-14T05:54:11.548Z,0
2018-01-14T05:54:37.045Z,0
2018-01-14T05:55:02.541Z,0
2018-01-14T05:56:16.328Z,0
2018-01-14T05:56:41.816Z,0
2018-01-14T05:57:07.316Z,0
2018-01-14T05:57:32.788Z,0
2018-01-14T05:57:58.297Z,0
2018-01-14T05:58:23.807Z,0
2018-01-14T05:58:49.286Z,0
2018-01-14T05:59:14.780Z,0
2018-01-14T05:59:40.256Z,0
2018-01-14T06:00:05.740Z,0
2018-01-14T06:00:31.271Z,0
2018-01-14T06:00:56.771Z,0
2018-01-14T06:01:22.233Z,0
2018-01-14T06:01:47.698Z,0
2018-01-14T06:02:13.169Z,0
2018-01-14T06:02:38.679Z,0
2018-01-14T06:03:04.141Z,0
2018-01-14T06:03:29.625Z,0
2018-01-14T06:03:55.125Z,0
2018-01-14T06:04:20.606Z,0
2018-01-14T06:04:46.098Z,0
2018-01-14T06:06:10.143Z,0
2018-01-14T06:06:35.607Z,0
2018-01-14T06:07:01.121Z,0
2018-01-14T06:08:20.140Z,0
2018-01-14T06:08:45.581Z,0
2018-01-14T06:09:11.046Z,0
2018-01-14T06:09:36.524Z,0
2018-01-14T06:10:02.010Z,0
2018-01-14T06:11:21.091Z,0
2018-01-14T06:11:46.581Z,0
2018-01-14T06:12:12.080Z,0
2018-01-14T06:12:37.588Z,0
2018-01-14T06:13:03.128Z,0
2018-01-14T06:13:28.611Z,0
2018-01-14T06:13:54.097Z,0
2018-01-14T06:14:19.671Z,0
2018-01-14T06:14:45.148Z,0
2018-01-14T06:15:10.611Z,0
2018-01-14T06:15:36.098Z,0
2018-01-14T06:16:01.588Z,0
2018-01-14T06:16:27.134Z,0
2018-01-14T06:16:52.600Z,0
2018-01-14T06:17:18.068Z,0
2018-01-14T06:17:43.565Z,0
2018-01-14T06:18:09.057Z,0
2018-01-14T06:18:34.550Z,0
2018-01-14T06:19:00.049Z,0
2018-01-14T06:19:25.556Z,0
2018-01-14T06:19:51.054Z,0
2018-01-14T06:20:16.613Z,0
2018-01-14T06:20:42.054Z,0
2018-01-14T06:21:07.543Z,0
2018-01-14T06:21:33.030Z,0
2018-01-14T06:21:58.549Z,0
2018-01-14T06:22:24.068Z,0
2018-01-14T06:22:49.529Z,0
2018-01-14T06:23:15.066Z,0
2018-01-14T06:23:40.530Z,0
2018-01-14T06:24:06.033Z,0
2018-01-14T06:24:31.494Z,0
2018-01-14T06:24:57.013Z,0
2018-01-14T06:25:22.515Z,0
2018-01-14T06:25:48.026Z,0
2018-01-14T06:26:13.502Z,0
2018-01-14T06:26:38.983Z,0
2018-01-14T06:27:04.467Z,0
2018-01-14T06:27:29.949Z,0
2018-01-14T06:27:55.417Z,0
2018-01-14T06:28:20.909Z,0
2018-01-14T06:28:46.361Z,0
2018-01-14T06:30:05.284Z,0
2018-01-14T06:30:30.779Z,0
2018-01-14T06:30:56.279Z,0
2018-01-14T06:31:21.802Z,0
2018-01-14T06:31:47.282Z,0
2018-01-14T06:32:12.800Z,0
2018-01-14T06:32:38.297Z,0
2018-01-14T06:33:03.739Z,0
2018-01-14T06:33:29.235Z,0
2018-01-14T06:33:54.738Z,0
2018-01-14T06:34:20.237Z,0
2018-01-14T06:34:45.728Z,0
2018-01-14T06:35:11.194Z,0
2018-01-14T06:35:36.660Z,0
2018-01-14T06:36:02.210Z,0
2018-01-14T06:36:27.662Z,0
2018-01-14T06:36:53.169Z,0
2018-01-14T06:38:11.615Z,0
2018-01-14T06:38:37.111Z,0
2018-01-14T06:39:02.617Z,0
2018-01-14T06:39:28.109Z,0
2018-01-14T06:39:53.619Z,0
2018-01-14T06:40:19.113Z,0
2018-01-14T06:40:44.621Z,0
2018-01-14T06:41:10.100Z,0
2018-01-14T06:41:35.578Z,0
2018-01-14T06:42:01.090Z,0
2018-01-14T06:42:26.549Z,0
2018-01-14T06:43:50.551Z,0
2018-01-14T06:44:16.044Z,0
2018-01-14T06:44:41.559Z,0
2018-01-14T06:45:07.035Z,0
2018-01-14T06:45:32.516Z,0
2018-01-14T06:46:56.519Z,0
2018-01-14T06:47:22.006Z,0
2018-01-14T06:47:47.503Z,0
2018-01-14T06:48:13.005Z,0
2018-01-14T06:48:38.533Z,0
2018-01-14T06:49:04.024Z,0
2018-01-14T06:49:29.542Z,0
2018-01-14T06:49:55.042Z,0
2018-01-14T06:50:20.553Z,0
2018-01-14T06:50:46.033Z,0
2018-01-14T06:51:11.505Z,0
2018-01-14T06:51:37.036Z,0
2018-01-14T06:52:02.488Z,0
2018-01-14T06:52:28.009Z,0
2018-01-14T06:52:53.513Z,0
2018-01-14T06:53:19.012Z,0
2018-01-14T06:53:44.506Z,0
2018-01-14T06:54:10.138Z,0
2018-01-14T06:54:35.547Z,0
2018-01-14T06:55:01.083Z,0
2018-01-14T06:56:14.827Z,0
2018-01-14T06:56:40.331Z,0
2018-01-14T06:57:05.833Z,0
2018-01-14T06:57:31.281Z,0
2018-01-14T06:57:56.754Z,0
2018-01-14T06:58:22.284Z,0
2018-01-14T06:58:47.756Z,0
2018-01-14T06:59:13.289Z,0
2018-01-14T06:59:38.824Z,0
2018-01-14T07:00:04.292Z,0
2018-01-14T07:00:29.789Z,0
2018-01-14T07:00:55.283Z,0
2018-01-14T07:01:20.767Z,0
2018-01-14T07:01:46.242Z,0
2018-01-14T07:02:11.743Z,0
2018-01-14T07:02:37.270Z,0
2018-01-14T07:03:02.756Z,0
2018-01-14T07:03:28.255Z,0
2018-01-14T07:04:56.884Z,0
2018-01-14T07:05:22.370Z,0
2018-01-14T07:05:47.827Z,0
2018-01-14T07:06:13.329Z,0
2018-01-14T07:07:42.433Z,0
2018-01-14T07:08:07.957Z,0
2018-01-14T07:08:33.436Z,0
2018-01-14T07:08:58.920Z,0
2018-01-14T07:09:24.454Z,0
2018-01-14T07:09:49.915Z,0
2018-01-14T07:10:15.413Z,0
2018-01-14T07:10:40.920Z,0
2018-01-14T07:11:06.431Z,0
2018-01-14T07:11:31.908Z,0
2018-01-14T07:11:57.387Z,0
2018-01-14T07:12:22.871Z,0
2018-01-14T07:12:48.420Z,0
2018-01-14T07:14:07.358Z,0
2018-01-14T07:14:32.824Z,0
2018-01-14T07:14:58.310Z,0
2018-01-14T07:15:23.821Z,0
2018-01-14T07:15:49.325Z,0
2018-01-14T07:16:14.766Z,0
2018-01-14T07:17:43.831Z,0
2018-01-14T07:18:09.345Z,0
2018-01-14T07:18:34.803Z,0
2018-01-14T07:19:00.288Z,0
2018-01-14T07:19:25.730Z,0
2018-01-14T07:19:51.223Z,0
2018-01-14T07:20:16.735Z,0
2018-01-14T07:20:42.229Z,0
2018-01-14T07:21:07.770Z,0
2018-01-14T07:21:33.230Z,0
2018-01-14T07:21:58.720Z,0
2018-01-14T07:22:24.224Z,0
2018-01-14T07:22:49.726Z,0
2018-01-14T07:23:15.251Z,0
2018-01-14T07:23:40.757Z,0
2018-01-14T07:24:06.268Z,0
2018-01-14T07:26:23.944Z,0
2018-01-14T07:26:49.437Z,0
2018-01-14T07:27:14.923Z,0
2018-01-14T07:27:40.414Z,0
2018-01-14T07:28:05.935Z,0
2018-01-14T07:28:31.382Z,0
2018-01-14T07:29:55.389Z,0
2018-01-14T07:30:20.887Z,0
2018-01-14T07:30:46.375Z,0
2018-01-14T07:31:11.885Z,0
2018-01-14T07:31:37.365Z,0
2018-01-14T07:32:02.894Z,0
2018-01-14T07:32:28.395Z,0
2018-01-14T07:32:53.951Z,0
2018-01-14T07:34:23.096Z,0
2018-01-14T07:34:48.568Z,0
2018-01-14T07:35:14.073Z,0
2018-01-14T07:35:39.560Z,0
2018-01-14T07:36:05.043Z,0
2018-01-14T07:36:30.575Z,0
2018-01-14T07:37:44.392Z,0
2018-01-14T07:38:09.876Z,0
2018-01-14T07:38:35.342Z,0
2018-01-14T07:39:00.853Z,0
2018-01-14T07:39:26.358Z,0
2018-01-14T07:39:51.857Z,0
2018-01-14T07:40:17.339Z,0
2018-01-14T07:40:42.880Z,0
2018-01-14T07:41:08.415Z,0
2018-01-14T07:42:37.451Z,0
2018-01-14T07:43:02.959Z,0
2018-01-14T07:43:28.444Z,0
2018-01-14T07:43:53.997Z,0
2018-01-14T07:44:19.445Z,0
2018-01-14T07:44:44.950Z,0
2018-01-14T07:45:10.434Z,0
2018-01-14T07:45:35.919Z,0
2018-01-14T07:46:01.399Z,0
2018-01-14T07:46:26.933Z,0
2018-01-14T07:46:52.413Z,0
2018-01-14T07:47:17.919Z,0
2018-01-14T07:47:43.408Z,0
2018-01-14T07:48:08.919Z,0
2018-01-14T07:48:34.419Z,0
2018-01-14T07:48:59.915Z,0
2018-01-14T07:49:25.430Z,0
2018-01-14T07:49:50.934Z,0
2018-01-14T07:50:16.390Z,5
2018-01-14T07:50:41.921Z,5
2018-01-14T07:51:07.414Z,5
2018-01-14T07:51:32.873Z,5
2018-01-14T07:51:58.362Z,5
2018-01-14T07:52:23.853Z,5
2018-01-14T07:53:37.629Z,5
2018-01-14T07:54:03.124Z,5
2018-01-14T07:54:28.630Z,5
2018-01-14T07:54:54.157Z,5
2018-01-14T07:55:19.632Z,5
2018-01-14T07:55:45.138Z,5
2018-01-14T07:56:10.599Z,5
2018-01-14T07:56:36.134Z,5
2018-01-14T07:57:01.695Z,5
2018-01-14T07:57:27.215Z,5
2018-01-14T07:57:52.714Z,5
2018-01-14T07:58:18.197Z,5
2018-01-14T07:58:43.683Z,5
2018-01-14T07:59:09.191Z,5
2018-01-14T07:59:34.691Z,5
2018-01-14T08:00:00.218Z,5
2018-01-14T08:00:25.742Z,5
2018-01-14T08:00:51.250Z,5
2018-01-14T08:01:16.723Z,5
2018-01-14T08:01:42.275Z,5
2018-01-14T08:02:07.782Z,5
2018-01-14T08:03:36.886Z,5
2018-01-14T08:04:02.447Z,5
2018-01-14T08:04:27.953Z,5
2018-01-14T08:04:53.449Z,5
2018-01-14T08:05:18.938Z,10
2018-01-14T08:05:44.464Z,10
2018-01-14T08:06:09.986Z,10
2018-01-14T08:06:35.448Z,10
2018-01-14T08:07:00.882Z,10
2018-01-14T08:07:26.343Z,10
2018-01-14T08:07:51.822Z,10
2018-01-14T08:08:17.320Z,10
2018-01-14T08:09:26.048Z,10
2018-01-14T08:09:51.559Z,10
2018-01-14T08:10:17.026Z,10
2018-01-14T08:10:42.525Z,10
2018-01-14T08:11:08.033Z,10
2018-01-14T08:11:33.490Z,10
2018-01-14T08:11:59.011Z,10
2018-01-14T08:12:24.503Z,10
2018-01-14T08:12:49.987Z,10
2018-01-14T08:13:15.463Z,10
2018-01-14T08:14:29.436Z,10
2018-01-14T08:14:54.943Z,10
2018-01-14T08:15:20.416Z,10
2018-01-14T08:15:45.917Z,10
2018-01-14T08:16:11.577Z,10
2018-01-14T08:16:36.939Z,10
2018-01-14T08:17:02.397Z,10
2018-01-14T08:17:27.867Z,10
2018-01-14T08:17:53.357Z,10
2018-01-14T08:18:18.852Z,10
2018-01-14T08:18:44.375Z,10
2018-01-14T08:19:09.865Z,10
2018-01-14T08:19:35.328Z,10
2018-01-14T08:20:00.778Z,10
2018-01-14T08:20:26.253Z,10
2018-01-14T08:20:51.770Z,10
2018-01-14T08:21:17.257Z,10
2018-01-14T08:21:42.717Z,10
2018-01-14T08:22:08.209Z,10
2018-01-14T08:22:33.669Z,10
2018-01-14T08:22:59.155Z,10
2018-01-14T08:23:24.594Z,15
2018-01-14T08:23:50.094Z,15
2018-01-14T08:24:15.585Z,15
2018-01-14T08:24:41.029Z,15
2018-01-14T08:25:06.493Z,15
2018-01-14T08:25:31.935Z,15
2018-01-14T08:25:57.415Z,15
2018-01-14T08:26:22.840Z,15
2018-01-14T08:26:48.375Z,15
2018-01-14T08:27:13.818Z,15
2018-01-14T08:27:39.405Z,15
2018-01-14T08:28:04.840Z,15
2018-01-14T08:28:30.342Z,15
2018-01-14T08:28:55.796Z,15
2018-01-14T08:29:21.256Z,15
2018-01-14T08:29:46.728Z,15
2018-01-14T08:30:12.205Z,15
2018-01-14T08:30:37.678Z,15
2018-01-14T08:31:03.180Z,15
2018-01-14T08:31:28.796Z,15
2018-01-14T08:31:54.227Z,15
2018-01-14T08:32:19.707Z,15
2018-01-14T08:32:45.215Z,15
2018-01-14T08:33:10.709Z,15
2018-01-14T08:33:36.206Z,15
2018-01-14T08:34:01.727Z,15
2018-01-14T08:34:27.245Z,20
2018-01-14T08:34:52.729Z,20
2018-01-14T08:35:18.228Z,20
2018-01-14T08:35:43.745Z,20
2018-01-14T08:36:09.225Z,20
2018-01-14T08:36:34.703Z,20
2018-01-14T08:37:58.695Z,20
2018-01-14T08:38:24.250Z,20
2018-01-14T08:38:49.720Z,20
2018-01-14T08:39:15.215Z,20
2018-01-14T08:39:40.722Z,20
2018-01-14T08:40:06.181Z,20
2018-01-14T08:40:31.652Z,20
2018-01-14T08:40:57.144Z,20
2018-01-14T08:41:22.644Z,20
2018-01-14T08:41:48.110Z,20
2018-01-14T08:42:13.592Z,20
2018-01-14T08:42:39.083Z,20
2018-01-14T08:43:04.601Z,20
2018-01-14T08:43:30.133Z,20
2018-01-14T08:43:55.604Z,20
2018-01-14T08:44:21.075Z,20
2018-01-14T08:44:46.629Z,20
2018-01-14T08:45:12.095Z,20
2018-01-14T08:45:37.582Z,25
2018-01-14T08:46:03.065Z,25
2018-01-14T08:46:28.567Z,25
2018-01-14T08:46:54.028Z,25
2018-01-14T08:47:19.530Z,25
2018-01-14T08:47:45.028Z,25
2018-01-14T08:48:10.538Z,25
2018-01-14T08:48:36.043Z,25
2018-01-14T08:49:01.570Z,25
2018-01-14T08:49:27.109Z,25
2018-01-14T08:49:52.545Z,25
2018-01-14T08:51:06.344Z,25
2018-01-14T08:51:31.855Z,25
2018-01-14T08:51:57.374Z,25
2018-01-14T08:52:22.903Z,25
2018-01-14T08:52:48.359Z,30
2018-01-14T08:53:13.809Z,30
2018-01-14T08:53:39.384Z,30
2018-01-14T08:54:04.818Z,30
2018-01-14T08:54:30.285Z,30
2018-01-14T08:54:55.743Z,30
2018-01-14T08:55:21.203Z,30
2018-01-14T08:55:46.647Z,30
2018-01-14T08:56:12.160Z,30
2018-01-14T08:56:37.655Z,30
2018-01-14T08:57:03.082Z,30
2018-01-14T08:57:28.521Z,30
2018-01-14T08:57:54.037Z,30
2018-01-14T08:58:19.471Z,30
2018-01-14T08:59:43.477Z,35
2018-01-14T09:00:08.969Z,35
2018-01-14T09:00:34.520Z,35
2018-01-14T09:00:59.944Z,35
2018-01-14T09:01:25.467Z,35
2018-01-14T09:01:50.945Z,35
2018-01-14T09:02:16.439Z,35
2018-01-14T09:02:41.904Z,35
2018-01-14T09:03:07.475Z,35
2018-01-14T09:03:32.897Z,35
2018-01-14T09:03:58.378Z,35
2018-01-14T09:04:23.846Z,35
2018-01-14T09:04:49.351Z,35
2018-01-14T09:05:14.863Z,35
2018-01-14T09:05:40.362Z,35
2018-01-14T09:06:05.866Z,35
2018-01-14T09:06:31.304Z,35
2018-01-14T09:06:56.767Z,35
2018-01-14T09:07:22.243Z,35
2018-01-14T09:07:47.760Z,35
2018-01-14T09:08:13.238Z,35
2018-01-14T09:08:38.708Z,35
2018-01-14T09:09:04.210Z,35
2018-01-14T09:09:29.664Z,35
2018-01-14T09:09:55.166Z,35
2018-01-14T09:10:20.640Z,35
2018-01-14T09:10:46.083Z,35
2018-01-14T09:11:59.865Z,40
2018-01-14T09:12:25.347Z,40
2018-01-14T09:12:50.824Z,40
2018-01-14T09:13:16.314Z,40
2018-01-14T09:13:41.753Z,40
2018-01-14T09:14:07.221Z,40
2018-01-14T09:14:32.729Z,40
2018-01-14T09:14:58.218Z,40
2018-01-14T09:15:23.701Z,40
2018-01-14T09:15:49.198Z,40
2018-01-14T09:16:14.684Z,40
2018-01-14T09:16:40.149Z,40
2018-01-14T09:17:59.086Z,45
2018-01-14T09:18:24.642Z,45
2018-01-14T09:18:50.157Z,45
2018-01-14T09:19:15.623Z,45
2018-01-14T09:19:41.084Z,45
2018-01-14T09:20:06.573Z,45
2018-01-14T09:20:32.028Z,45
2018-01-14T09:20:57.522Z,50
2018-01-14T09:21:22.999Z,50
2018-01-14T09:21:48.440Z,50
2018-01-14T09:22:13.895Z,50
2018-01-14T09:22:39.360Z,50
2018-01-14T09:23:04.880Z,50
2018-01-14T09:23:30.352Z,50
2018-01-14T09:23:55.824Z,50
2018-01-14T09:24:21.340Z,45
2018-01-14T09:24:46.808Z,50
2018-01-14T09:25:12.284Z,50
2018-01-14T09:25:37.795Z,45
2018-01-14T09:26:03.315Z,45
2018-01-14T09:26:28.773Z,45
2018-01-14T09:26:54.223Z,50
2018-01-14T09:27:19.718Z,50
2018-01-14T09:27:45.177Z,50
2018-01-14T09:28:10.625Z,50
2018-01-14T09:28:36.137Z,50
2018-01-14T09:29:01.619Z,50
2018-01-14T09:29:27.030Z,50
2018-01-14T09:29:52.506Z,50
2018-01-14T09:30:17.963Z,50
2018-01-14T09:30:43.544Z,50
2018-01-14T09:31:09.011Z,55
2018-01-14T09:31:34.499Z,55
2018-01-14T09:31:59.977Z,55
2018-01-14T09:32:25.407Z,55
2018-01-14T09:32:50.889Z,55
2018-01-14T09:33:16.536Z,55
2018-01-14T09:33:41.909Z,55
2018-01-14T09:34:07.359Z,55
2018-01-14T09:34:32.849Z,55
2018-01-14T09:34:58.332Z,55
2018-01-14T09:35:23.765Z,60
2018-01-14T09:35:49.502Z,60
2018-01-14T09:36:14.972Z,60
2018-01-14T09:36:40.440Z,60
2018-01-14T09:37:05.974Z,60
2018-01-14T09:37:31.403Z,60
2018-01-14T09:37:56.891Z,65
2018-01-14T09:38:22.468Z,65
2018-01-14T09:38:48.141Z,65
2018-01-14T09:39:13.585Z,65
2018-01-14T09:39:39.034Z,65
2018-01-14T09:40:04.534Z,65
2018-01-14T09:40:30.009Z,65
2018-01-14T09:40:55.475Z,65
2018-01-14T09:42:14.401Z,65
2018-01-14T09:42:39.865Z,65
2018-01-14T09:43:05.346Z,65
2018-01-14T09:43:30.837Z,65
2018-01-14T09:43:56.339Z,65
2018-01-14T09:44:21.757Z,70
2018-01-14T09:44:47.259Z,65
2018-01-14T09:45:12.743Z,70
2018-01-14T09:45:38.207Z,70
2018-01-14T09:46:03.712Z,70
2018-01-14T09:46:29.175Z,70
2018-01-14T09:46:54.633Z,70
2018-01-14T09:47:20.091Z,70
2018-01-14T09:47:45.553Z,70
2018-01-14T09:49:04.676Z,75
2018-01-14T09:49:30.160Z,75
2018-01-14T09:49:55.648Z,80
2018-01-14T09:50:21.065Z,80
2018-01-14T09:50:46.627Z,80
2018-01-14T09:51:12.162Z,80
2018-01-14T09:51:37.575Z,80
2018-01-14T09:52:03.062Z,80
2018-01-14T09:52:28.534Z,80
2018-01-14T09:52:54.070Z,80
2018-01-14T09:53:19.577Z,80
2018-01-14T09:53:45.092Z,85
2018-01-14T09:54:10.568Z,85
2018-01-14T09:54:36.040Z,85
2018-01-14T09:55:01.549Z,85
2018-01-14T09:56:20.502Z,90
2018-01-14T09:56:45.965Z,90
2018-01-14T09:57:11.469Z,85
2018-01-14T09:57:36.913Z,90
2018-01-14T09:58:02.398Z,90
2018-01-14T09:58:27.876Z,90
2018-01-14T09:58:53.326Z,85
2018-01-14T09:59:18.919Z,90
2018-01-14T09:59:44.400Z,90
2018-01-14T10:00:53.144Z,90
2018-01-14T10:01:18.592Z,90
2018-01-14T10:01:44.089Z,90
2018-01-14T10:02:09.633Z,90
2018-01-14T10:02:35.089Z,90
2018-01-14T10:03:00.625Z,85
2018-01-14T10:03:26.101Z,85
2018-01-14T10:03:51.584Z,90
2018-01-14T10:04:17.074Z,90
2018-01-14T10:04:42.488Z,90
2018-01-14T10:05:07.961Z,90
2018-01-14T10:05:33.426Z,90
2018-01-14T10:05:58.945Z,90
2018-01-14T10:06:24.388Z,90
2018-01-14T10:06:50.014Z,90
2018-01-14T10:07:15.444Z,90
2018-01-14T10:07:40.952Z,90
2018-01-14T10:08:06.401Z,90
2018-01-14T10:08:31.877Z,90
2018-01-14T10:08:57.374Z,90
2018-01-14T10:09:22.824Z,90
2018-01-14T10:09:48.290Z,90
2018-01-14T10:10:13.746Z,90
2018-01-14T10:10:39.240Z,90
2018-01-14T10:11:04.673Z,95
2018-01-14T10:11:30.269Z,95
2018-01-14T10:12:38.985Z,90
2018-01-14T10:13:04.461Z,95
2018-01-14T10:13:29.962Z,90
2018-01-14T10:13:55.378Z,90
2018-01-14T10:14:20.835Z,90
2018-01-14T10:14:46.310Z,90
2018-01-14T10:15:11.741Z,90
2018-01-14T10:15:37.187Z,90
2018-01-14T10:16:02.672Z,90
2018-01-14T10:16:28.110Z,90
2018-01-14T10:16:53.568Z,90
2018-01-14T10:17:19.144Z,90
2018-01-14T10:17:44.602Z,95
2018-01-14T10:18:10.104Z,95
2018-01-14T10:18:35.565Z,95
2018-01-14T10:19:01.044Z,95
2018-01-14T10:19:26.502Z,95
2018-01-14T10:19:51.997Z,100
2018-01-14T10:20:17.451Z,100
2018-01-14T10:20:42.929Z,95
2018-01-14T10:21:08.370Z,95
2018-01-14T10:21:33.834Z,100
2018-01-14T10:21:59.278Z,100
2018-01-14T10:22:24.716Z,95
2018-01-14T10:22:50.245Z,95
2018-01-14T10:23:15.679Z,100
2018-01-14T10:23:41.138Z,100
2018-01-14T10:24:06.588Z,100
2018-01-14T10:24:32.059Z,100
2018-01-14T10:24:57.551Z,100
2018-01-14T10:25:22.978Z,105
2018-01-14T10:25:48.452Z,105
2018-01-14T10:26:13.918Z,105
2018-01-14T10:26:39.382Z,105
2018-01-14T10:27:04.842Z,105
2018-01-14T10:28:13.548Z,110
2018-01-14T10:28:39.041Z,110
2018-01-14T10:29:04.544Z,110
2018-01-14T10:29:30.048Z,110
2018-01-14T10:29:55.475Z,110
2018-01-14T10:30:20.953Z,110
2018-01-14T10:30:46.481Z,110
2018-01-14T10:31:11.936Z,115
2018-01-14T10:31:37.418Z,115
2018-01-14T10:32:02.934Z,110
2018-01-14T10:32:28.381Z,115
2018-01-14T10:33:57.667Z,115
2018-01-14T10:34:23.100Z,110
2018-01-14T10:35:42.043Z,115
2018-01-14T10:36:07.535Z,110
2018-01-14T10:36:33.075Z,110
2018-01-14T10:36:58.486Z,115
2018-01-14T10:37:23.955Z,115
2018-01-14T10:37:49.448Z,110
2018-01-14T10:38:14.929Z,110
2018-01-14T10:38:40.395Z,110
2018-01-14T10:39:05.897Z,115
2018-01-14T10:39:31.397Z,115
2018-01-14T10:39:56.852Z,115
2018-01-14T10:40:22.320Z,115
2018-01-14T10:40:47.804Z,115
2018-01-14T10:41:13.313Z,115
2018-01-14T10:41:38.825Z,115
2018-01-14T10:42:04.322Z,120
2018-01-14T10:42:29.783Z,115
2018-01-14T10:43:48.725Z,120
2018-01-14T10:44:14.237Z,115
2018-01-14T10:44:39.721Z,115
2018-01-14T10:45:05.262Z,115
2018-01-14T10:45:30.762Z,115
2018-01-14T10:45:56.213Z,115
2018-01-14T10:46:21.741Z,115
2018-01-14T10:46:47.184Z,120
2018-01-14T10:47:12.666Z,115
2018-01-14T10:48:42.520Z,115
2018-01-14T10:49:07.974Z,115
2018-01-14T10:49:33.511Z,115
2018-01-14T10:49:58.982Z,115
2018-01-14T10:50:24.468Z,120
2018-01-14T10:50:49.944Z,115
2018-01-14T10:51:58.642Z,120
2018-01-14T10:52:24.139Z,120
2018-01-14T10:52:49.632Z,120
2018-01-14T10:53:15.527Z,115
2018-01-14T10:53:41.486Z,115
2018-01-14T10:54:06.847Z,115
2018-01-14T10:54:32.383Z,115
2018-01-14T10:54:58.247Z,115
2018-01-14T10:55:23.824Z,120
2018-01-14T10:55:49.418Z,120
2018-01-14T10:56:15.104Z,120
2018-01-14T10:56:40.722Z,120
2018-01-14T10:57:06.260Z,125
2018-01-14T10:57:31.826Z,125
2018-01-14T10:57:57.262Z,125
2018-01-14T10:59:16.514Z,130
2018-01-14T10:59:41.985Z,130
2018-01-14T11:00:56.767Z,130
2018-01-14T11:01:22.247Z,130
2018-01-14T11:01:47.784Z,130
2018-01-14T11:02:13.236Z,125
2018-01-14T11:02:38.702Z,130
2018-01-14T11:03:04.179Z,125
2018-01-14T11:03:29.654Z,125
2018-01-14T11:03:55.114Z,130
2018-01-14T11:04:20.575Z,130
2018-01-14T11:04:46.046Z,130
2018-01-14T11:05:11.519Z,130
2018-01-14T11:05:36.974Z,130
2018-01-14T11:07:06.068Z,125
2018-01-14T11:07:31.536Z,130
2018-01-14T11:07:56.980Z,130
2018-01-14T11:08:22.434Z,125
2018-01-14T11:08:47.890Z,130
2018-01-14T11:09:13.353Z,130
2018-01-14T11:09:38.834Z,130
2018-01-14T11:10:04.306Z,130
2018-01-14T11:10:29.774Z,125
2018-01-14T11:10:55.296Z,125
2018-01-14T11:11:20.780Z,125
2018-01-14T11:11:46.222Z,125
2018-01-14T11:12:11.713Z,125
2018-01-14T11:12:37.179Z,125
2018-01-14T11:13:02.703Z,130
2018-01-14T11:13:28.131Z,130
2018-01-14T11:13:53.622Z,130
2018-01-14T11:14:19.070Z,130
2018-01-14T11:14:44.542Z,130
2018-01-14T11:15:10.018Z,125
2018-01-14T11:15:35.520Z,125
2018-01-14T11:16:00.965Z,125
2018-01-14T11:16:26.442Z,130
2018-01-14T11:16:51.912Z,130
2018-01-14T11:17:17.396Z,125
2018-01-14T11:17:42.861Z,125
2018-01-14T11:18:08.314Z,125
2018-01-14T11:18:33.839Z,130
2018-01-14T11:18:59.335Z,130
2018-01-14T11:19:24.812Z,130
2018-01-14T11:19:50.335Z,135
2018-01-14T11:20:15.754Z,130
2018-01-14T11:20:41.208Z,130
2018-01-14T11:21:06.718Z,135
2018-01-14T11:21:32.189Z,135
2018-01-14T11:21:57.708Z,130
2018-01-14T11:22:23.155Z,130
2018-01-14T11:22:48.632Z,135
2018-01-14T11:23:14.131Z,130
2018-01-14T11:23:39.637Z,130
2018-01-14T11:24:05.108Z,130
2018-01-14T11:24:30.603Z,135
2018-01-14T11:24:56.094Z,130
2018-01-14T11:25:21.613Z,130
2018-01-14T11:26:45.591Z,135
2018-01-14T11:27:11.134Z,135
2018-01-14T11:27:36.589Z,135
2018-01-14T11:28:02.035Z,140
2018-01-14T11:28:27.534Z,140
2018-01-14T11:28:52.987Z,140
2018-01-14T11:29:18.471Z,140
2018-01-14T11:29:43.918Z,135
2018-01-14T11:30:09.403Z,135
2018-01-14T11:30:34.866Z,135
2018-01-14T11:31:00.350Z,135
2018-01-14T11:31:25.832Z,135
2018-01-14T11:31:51.361Z,135
2018-01-14T11:32:16.868Z,135
2018-01-14T11:32:42.354Z,135
2018-01-14T11:33:07.867Z,135
2018-01-14T11:33:33.347Z,135
2018-01-14T11:33:58.815Z,135
2018-01-14T11:35:23.152Z,135
2018-01-14T11:35:48.678Z,140
2018-01-14T11:36:14.121Z,135
2018-01-14T11:36:39.642Z,130
2018-01-14T11:37:05.070Z,130
2018-01-14T11:37:30.595Z,130
2018-01-14T11:37:56.069Z,135
2018-01-14T11:38:21.537Z,130
2018-01-14T11:38:47.034Z,130
2018-01-14T11:39:12.529Z,130
2018-01-14T11:39:38.036Z,125
2018-01-14T11:40:03.521Z,125
2018-01-14T11:40:29.101Z,120
2018-01-14T11:40:54.460Z,120
2018-01-14T11:41:19.915Z,120
2018-01-14T11:41:45.381Z,125
2018-01-14T11:42:10.833Z,125
2018-01-14T11:42:36.306Z,120
2018-01-14T11:43:01.776Z,120
2018-01-14T11:43:27.287Z,115
2018-01-14T11:43:52.790Z,120
2018-01-14T11:44:18.310Z,115
2018-01-14T11:44:43.807Z,115
2018-01-14T11:45:09.290Z,115
2018-01-14T11:45:34.725Z,115
2018-01-14T11:46:00.205Z,115
2018-01-14T11:46:25.701Z,120
2018-01-14T11:46:51.244Z,120
2018-01-14T11:47:16.688Z,115
2018-01-14T11:47:42.175Z,115
2018-01-14T11:48:07.642Z,115
2018-01-14T11:48:33.124Z,115
2018-01-14T11:48:58.633Z,115
2018-01-14T11:49:24.098Z,115
2018-01-14T11:49:49.649Z,115
2018-01-14T11:50:15.144Z,110
2018-01-14T11:50:40.632Z,110
2018-01-14T11:51:06.130Z,115
2018-01-14T11:51:31.641Z,110
2018-01-14T11:51:57.183Z,110